Time;durP1;ratioP1;P1;durP2;ratioP2;P2;SDS_P1;SDS_P2;PMS_P1;PMS_P2;Temp;Humidity;BMP_temperature;BMP_pressure;BME280_temperature;BME280_humidity;BME280_pressure;Samples;Min_cycle;Max_cycle;Signal;HPM_P1;HPM_P2
2022/04/04 00:01:48;;;;;;;7.65;4.60;;;;;;;;;;4926223;29;20267;-58
2022/04/04 00:04:13;;;;;;;6.95;4.35;;;;;;;;;;4926315;29;20031;-54
2022/04/04 00:06:39;;;;;;;6.83;4.23;;;;;;;;;;4927299;29;20024;-57
2022/04/04 00:09:04;;;;;;;6.40;4.55;;;;;;;;;;4927125;29;20786;-54
2022/04/04 00:11:29;;;;;;;6.43;4.30;;;;;;;;;;4910062;29;20039;-57
2022/04/04 00:13:55;;;;;;;5.87;4.00;;;;;;;;;;4913123;29;20767;-57
2022/04/04 00:16:20;;;;;;;6.43;4.55;;;;;;;;;;4923570;29;20367;-58
2022/04/04 00:18:45;;;;;;;5.43;4.00;;;;;;;;;;4912771;29;20122;-56
2022/04/04 00:21:11;;;;;;;5.87;3.90;;;;;;;;;;4926793;29;20123;-56
2022/04/04 00:23:36;;;;;;;5.90;3.95;;;;;;;;;;4926477;29;20414;-58
2022/04/04 00:26:03;;;;;;;6.50;4.17;;;;;;;;;;4926733;29;20020;-57
2022/04/04 00:28:28;;;;;;;6.45;4.38;;;;;;;;;;4926581;29;20024;-57
2022/04/04 00:30:53;;;;;;;5.90;4.17;;;;;;;;;;4926659;29;20035;-57
2022/04/04 00:33:19;;;;;;;6.32;4.18;;;;;;;;;;4917120;29;20024;-58
2022/04/04 00:35:44;;;;;;;6.53;4.30;;;;;;;;;;4920077;29;20165;-58
2022/04/04 00:38:11;;;;;;;6.70;4.30;;;;;;;;;;4910641;29;20039;-58
2022/04/04 00:40:36;;;;;;;6.63;4.15;;;;;;;;;;4926697;29;20020;-58
2022/04/04 00:43:01;;;;;;;5.97;4.10;;;;;;;;;;4926726;29;20480;-57
2022/04/04 00:45:26;;;;;;;6.23;4.03;;;;;;;;;;4926387;29;20279;-58
2022/04/04 00:47:51;;;;;;;6.40;4.38;;;;;;;;;;4926320;29;20338;-58
2022/04/04 00:50:17;;;;;;;5.13;3.73;;;;;;;;;;4926373;29;20035;-55
2022/04/04 00:52:42;;;;;;;5.47;3.57;;;;;;;;;;4909540;29;20575;-56
2022/04/04 00:55:07;;;;;;;5.87;3.77;;;;;;;;;;4926138;29;20015;-57
2022/04/04 00:57:33;;;;;;;6.40;4.63;;;;;;;;;;4915562;29;20820;-58
2022/04/04 00:59:58;;;;;;;5.70;3.97;;;;;;;;;;4909598;29;20111;-58
2022/04/04 01:02:23;;;;;;;5.73;4.20;;;;;;;;;;4925691;29;20307;-56
2022/04/04 01:04:48;;;;;;;5.77;4.23;;;;;;;;;;4925510;29;20058;-57
2022/04/04 01:07:13;;;;;;;5.03;3.65;;;;;;;;;;4929904;29;20275;-58
2022/04/04 01:09:39;;;;;;;5.93;3.97;;;;;;;;;;4929884;29;20030;-58
2022/04/04 01:12:06;;;;;;;5.20;3.85;;;;;;;;;;4929895;29;20314;-58
2022/04/04 01:14:31;;;;;;;5.30;3.55;;;;;;;;;;4895934;29;20027;-57
2022/04/04 01:16:56;;;;;;;5.43;3.63;;;;;;;;;;4928923;29;20050;-58
2022/04/04 01:19:22;;;;;;;6.67;3.93;;;;;;;;;;4929312;29;20303;-57
2022/04/04 01:21:47;;;;;;;5.20;3.87;;;;;;;;;;4929527;29;20027;-54
2022/04/04 01:24:21;;;;;;;6.20;3.70;;;;;;;;;;4928992;29;20307;-57
2022/04/04 01:26:47;;;;;;;5.35;3.70;;;;;;;;;;4929579;29;20295;-55
2022/04/04 01:29:12;;;;;;;5.70;4.20;;;;;;;;;;4929839;29;20062;-58
2022/04/04 01:31:37;;;;;;;5.47;3.72;;;;;;;;;;4929209;29;20024;-57
2022/04/04 01:34:03;;;;;;;5.28;3.75;;;;;;;;;;4912025;29;20028;-58
2022/04/04 01:36:28;;;;;;;5.18;3.58;;;;;;;;;;4926825;29;20028;-56
2022/04/04 01:38:53;;;;;;;5.70;3.97;;;;;;;;;;4919930;29;20045;-56
2022/04/04 01:41:18;;;;;;;5.40;3.60;;;;;;;;;;4912287;29;20028;-56
2022/04/04 01:43:44;;;;;;;6.18;4.00;;;;;;;;;;4929081;29;20174;-58
2022/04/04 01:46:24;;;;;;;5.63;3.40;;;;;;;;;;4929268;29;20031;-57
2022/04/04 01:48:50;;;;;;;5.15;3.45;;;;;;;;;;4928823;29;20487;-57
2022/04/04 01:51:15;;;;;;;4.97;3.30;;;;;;;;;;4929323;29;20035;-53
2022/04/04 01:53:40;;;;;;;6.38;3.80;;;;;;;;;;4917010;29;20039;-57
2022/04/04 01:56:06;;;;;;;5.63;3.73;;;;;;;;;;4925084;29;20043;-57
2022/04/04 01:58:31;;;;;;;5.45;3.33;;;;;;;;;;4913013;29;20306;-57
2022/04/04 02:00:58;;;;;;;4.97;3.30;;;;;;;;;;4928921;29;20027;-58
2022/04/04 02:03:25;;;;;;;6.03;3.75;;;;;;;;;;4927902;29;20027;-58
2022/04/04 02:05:50;;;;;;;6.43;3.90;;;;;;;;;;4928578;29;20483;-57
2022/04/04 02:08:15;;;;;;;5.53;3.73;;;;;;;;;;4928738;29;20126;-57
2022/04/04 02:10:40;;;;;;;5.20;3.47;;;;;;;;;;4928563;29;20754;-56
2022/04/04 02:13:06;;;;;;;4.67;3.43;;;;;;;;;;4921449;29;20028;-57
2022/04/04 02:15:31;;;;;;;5.57;3.55;;;;;;;;;;4919804;29;20267;-57
2022/04/04 02:17:56;;;;;;;4.85;3.15;;;;;;;;;;4907243;29;20086;-56
2022/04/04 02:20:21;;;;;;;4.80;3.40;;;;;;;;;;4926275;29;20550;-56
2022/04/04 02:22:48;;;;;;;4.43;3.20;;;;;;;;;;4928064;29;20039;-58
2022/04/04 02:25:13;;;;;;;5.25;3.40;;;;;;;;;;4927423;29;20038;-57
2022/04/04 02:27:38;;;;;;;5.80;3.40;;;;;;;;;;4927353;29;20023;-54
2022/04/04 02:30:04;;;;;;;4.63;3.17;;;;;;;;;;4927664;29;20503;-53
2022/04/04 02:32:29;;;;;;;5.47;3.28;;;;;;;;;;4924637;29;20275;-57
2022/04/04 02:34:54;;;;;;;5.30;3.40;;;;;;;;;;4913980;29;20020;-55
2022/04/04 02:37:19;;;;;;;5.20;3.37;;;;;;;;;;4918470;29;20288;-57
2022/04/04 02:39:45;;;;;;;5.60;3.70;;;;;;;;;;4920490;29;20538;-57
2022/04/04 02:42:10;;;;;;;4.23;2.93;;;;;;;;;;4927311;29;20020;-58
2022/04/04 02:44:35;;;;;;;5.23;3.37;;;;;;;;;;4925596;29;20011;-56
2022/04/04 02:47:00;;;;;;;5.15;3.20;;;;;;;;;;4910114;29;20271;-57
2022/04/04 02:49:28;;;;;;;5.30;3.50;;;;;;;;;;4927123;29;20422;-54
2022/04/04 02:51:54;;;;;;;3.47;2.85;;;;;;;;;;4926986;29;20715;-56
2022/04/04 02:54:20;;;;;;;5.85;3.53;;;;;;;;;;4910816;29;20036;-56
2022/04/04 02:56:45;;;;;;;4.20;2.90;;;;;;;;;;4922741;29;20031;-54
2022/04/04 02:59:10;;;;;;;4.50;3.27;;;;;;;;;;4915434;29;20306;-56
2022/04/04 03:01:35;;;;;;;5.77;3.50;;;;;;;;;;4926855;29;20339;-57
2022/04/04 03:04:01;;;;;;;4.93;3.27;;;;;;;;;;4926119;29;20036;-55
2022/04/04 03:06:27;;;;;;;4.70;3.20;;;;;;;;;;4926891;29;20282;-56
2022/04/04 03:08:52;;;;;;;5.60;3.10;;;;;;;;;;4926878;29;20027;-55
2022/04/04 03:11:18;;;;;;;4.20;2.70;;;;;;;;;;4927042;29;20024;-57
2022/04/04 03:13:43;;;;;;;4.70;3.20;;;;;;;;;;4914717;29;20280;-57
2022/04/04 03:16:08;;;;;;;4.88;2.90;;;;;;;;;;4924309;29;20550;-57
2022/04/04 03:18:35;;;;;;;5.00;3.40;;;;;;;;;;4926123;29;20040;-53
2022/04/04 03:21:00;;;;;;;4.65;2.90;;;;;;;;;;4926425;29;20268;-56
2022/04/04 03:23:27;;;;;;;4.93;3.05;;;;;;;;;;4886222;29;1174352;-55
2022/04/04 03:25:54;;;;;;;4.25;2.88;;;;;;;;;;4926770;29;20043;-57
2022/04/04 03:28:19;;;;;;;4.70;3.20;;;;;;;;;;4926376;29;20108;-53
2022/04/04 03:30:44;;;;;;;4.25;3.10;;;;;;;;;;4926544;29;20650;-52
2022/04/04 03:33:09;;;;;;;5.00;3.40;;;;;;;;;;4918786;29;20598;-57
2022/04/04 03:35:35;;;;;;;4.78;3.42;;;;;;;;;;4918415;29;20795;-58
2022/04/04 03:38:00;;;;;;;4.18;2.90;;;;;;;;;;4912966;29;20039;-56
2022/04/04 03:40:26;;;;;;;4.47;2.88;;;;;;;;;;4924656;29;20106;-57
2022/04/04 03:42:52;;;;;;;4.97;3.10;;;;;;;;;;4926836;29;20019;-55
2022/04/04 03:45:19;;;;;;;5.25;3.20;;;;;;;;;;4926494;29;20050;-55
2022/04/04 03:47:44;;;;;;;4.90;2.88;;;;;;;;;;4926786;29;20027;-54
2022/04/04 03:50:10;;;;;;;4.60;3.03;;;;;;;;;;4926369;29;20042;-53
2022/04/04 03:52:35;;;;;;;5.15;3.28;;;;;;;;;;4926501;29;20499;-54
2022/04/04 03:55:01;;;;;;;5.28;3.22;;;;;;;;;;4925134;29;20012;-57
2022/04/04 03:57:27;;;;;;;5.03;2.88;;;;;;;;;;4917134;29;20492;-58
2022/04/04 03:59:52;;;;;;;5.13;2.85;;;;;;;;;;4919269;29;20759;-57
2022/04/04 04:02:18;;;;;;;5.15;2.95;;;;;;;;;;4925206;29;20034;-57
2022/04/04 04:04:44;;;;;;;5.80;3.10;;;;;;;;;;4925299;29;20031;-56
2022/04/04 04:07:15;;;;;;;4.43;2.67;;;;;;;;;;4920284;29;20622;-59
2022/04/04 04:09:41;;;;;;;3.78;2.90;;;;;;;;;;4924092;29;20507;-58
2022/04/04 04:12:07;;;;;;;5.05;2.80;;;;;;;;;;4919610;29;20027;-55
2022/04/04 04:14:32;;;;;;;4.75;2.70;;;;;;;;;;4920828;29;20039;-56
2022/04/04 04:16:58;;;;;;;5.53;3.08;;;;;;;;;;4923726;29;20104;-54
2022/04/04 04:22:06;;;;;;;3.78;2.20;;;;;;;;;;4920674;29;20809;-56
2022/04/04 04:24:32;;;;;;;4.80;2.93;;;;;;;;;;4921043;29;20051;-53
2022/04/04 04:26:57;;;;;;;4.85;2.90;;;;;;;;;;4913245;29;20790;-53
2022/04/04 04:29:22;;;;;;;4.57;2.60;;;;;;;;;;4916573;29;20088;-54
2022/04/04 04:31:47;;;;;;;4.57;2.80;;;;;;;;;;4922881;29;20271;-53
2022/04/04 04:34:13;;;;;;;3.55;2.30;;;;;;;;;;4924719;29;20264;-55
2022/04/04 04:36:39;;;;;;;4.07;2.75;;;;;;;;;;4920741;29;20031;-57
2022/04/04 04:39:07;;;;;;;5.32;2.80;;;;;;;;;;4923355;29;20705;-52
2022/04/04 04:41:32;;;;;;;3.88;2.58;;;;;;;;;;4924552;29;20023;-56
2022/04/04 04:43:57;;;;;;;4.37;2.53;;;;;;;;;;4927380;29;20106;-56
2022/04/04 04:46:23;;;;;;;4.97;2.67;;;;;;;;;;4927303;29;20275;-54
2022/04/04 04:48:48;;;;;;;4.25;2.33;;;;;;;;;;4927153;29;20030;-54
2022/04/04 04:51:14;;;;;;;4.65;2.60;;;;;;;;;;4927085;29;20030;-52
2022/04/04 04:53:39;;;;;;;4.23;2.53;;;;;;;;;;4925751;29;21539;-56
2022/04/04 04:56:05;;;;;;;3.40;2.30;;;;;;;;;;4927335;29;20408;-56
2022/04/04 04:58:30;;;;;;;3.38;2.25;;;;;;;;;;4926973;29;20055;-55
2022/04/04 05:00:55;;;;;;;4.25;2.38;;;;;;;;;;4928207;29;20019;-52
2022/04/04 05:03:27;;;;;;;3.85;2.25;;;;;;;;;;4929483;29;20030;-56
2022/04/04 05:05:52;;;;;;;4.43;2.60;;;;;;;;;;4929408;29;20028;-53
2022/04/04 05:08:18;;;;;;;5.20;2.30;;;;;;;;;;4929402;29;20036;-56
2022/04/04 05:10:43;;;;;;;4.90;2.65;;;;;;;;;;4928984;29;20026;-58
2022/04/04 05:13:08;;;;;;;3.20;2.28;;;;;;;;;;4905575;29;20083;-57
2022/04/04 05:15:33;;;;;;;5.28;2.75;;;;;;;;;;4918463;29;20111;-58
2022/04/04 05:17:59;;;;;;;4.35;2.47;;;;;;;;;;4928683;29;20040;-58
2022/04/04 05:20:24;;;;;;;5.30;2.40;;;;;;;;;;4930038;29;20392;-57
2022/04/04 05:22:49;;;;;;;5.13;2.67;;;;;;;;;;4928534;29;20294;-54
2022/04/04 05:25:14;;;;;;;4.33;2.10;;;;;;;;;;4928563;29;20323;-60
2022/04/04 05:27:40;;;;;;;5.25;2.50;;;;;;;;;;4929283;29;20275;-61
2022/04/04 05:30:06;;;;;;;4.22;2.47;;;;;;;;;;4928079;29;20031;-56
2022/04/04 05:32:31;;;;;;;3.78;2.50;;;;;;;;;;4926992;29;20023;-55
2022/04/04 05:34:56;;;;;;;6.50;2.67;;;;;;;;;;4927582;29;20521;-53
2022/04/04 05:37:21;;;;;;;6.53;2.30;;;;;;;;;;4910558;29;20272;-58
2022/04/04 05:39:46;;;;;;;6.43;2.30;;;;;;;;;;4927550;29;20032;-57
2022/04/04 05:42:12;;;;;;;8.07;2.73;;;;;;;;;;4928064;29;20275;-58
2022/04/04 05:44:37;;;;;;;7.50;3.13;;;;;;;;;;4927766;29;20363;-53
2022/04/04 05:47:02;;;;;;;8.63;2.67;;;;;;;;;;4928209;29;20949;-52
2022/04/04 05:49:27;;;;;;;12.40;3.38;;;;;;;;;;4928924;29;20360;-54
2022/04/04 05:51:53;;;;;;;15.07;3.75;;;;;;;;;;4928706;29;20351;-56
2022/04/04 05:54:18;;;;;;;10.33;3.37;;;;;;;;;;4928337;29;20463;-60
2022/04/04 05:56:46;;;;;;;12.15;3.13;;;;;;;;;;4925241;29;20827;-58
2022/04/04 05:59:13;;;;;;;11.20;3.45;;;;;;;;;;4919646;29;20043;-58
2022/04/04 06:01:38;;;;;;;9.25;2.67;;;;;;;;;;4927009;29;20079;-62
2022/04/04 06:04:03;;;;;;;12.37;3.47;;;;;;;;;;4928354;29;20027;-56
2022/04/04 06:06:29;;;;;;;15.65;3.10;;;;;;;;;;4928025;29;20278;-53
2022/04/04 06:08:55;;;;;;;17.08;3.92;;;;;;;;;;4928693;29;20060;-59
2022/04/04 06:11:21;;;;;;;11.48;3.25;;;;;;;;;;4927992;29;20023;-57
2022/04/04 06:13:46;;;;;;;11.88;3.00;;;;;;;;;;4922443;29;20567;-56
2022/04/04 06:16:11;;;;;;;10.60;3.20;;;;;;;;;;4927647;29;20471;-57
2022/04/04 06:18:36;;;;;;;9.73;3.00;;;;;;;;;;4926560;29;20594;-58
2022/04/04 06:21:04;;;;;;;11.35;3.17;;;;;;;;;;4927671;29;20688;-54
2022/04/04 06:23:30;;;;;;;12.07;3.50;;;;;;;;;;4926482;29;20056;-57
2022/04/04 06:25:56;;;;;;;11.25;3.50;;;;;;;;;;4927216;29;20055;-58
2022/04/04 06:28:22;;;;;;;14.18;4.13;;;;;;;;;;4928651;29;20034;-52
2022/04/04 06:30:47;;;;;;;9.70;3.15;;;;;;;;;;4928694;29;20110;-56
2022/04/04 06:33:12;;;;;;;10.32;3.53;;;;;;;;;;4920952;29;20585;-58
2022/04/04 06:35:38;;;;;;;10.53;3.50;;;;;;;;;;4919746;29;20028;-58
2022/04/04 06:38:03;;;;;;;10.63;3.53;;;;;;;;;;4928286;29;20337;-57
2022/04/04 06:40:29;;;;;;;11.23;3.08;;;;;;;;;;4909623;29;20515;-57
2022/04/04 06:42:56;;;;;;;12.77;3.45;;;;;;;;;;4928124;29;20022;-53
2022/04/04 06:45:21;;;;;;;13.18;3.50;;;;;;;;;;4926769;29;20042;-56
2022/04/04 06:47:47;;;;;;;15.57;3.40;;;;;;;;;;4927247;29;20066;-58
2022/04/04 06:50:13;;;;;;;12.82;3.83;;;;;;;;;;4927231;29;20423;-58
2022/04/04 06:52:39;;;;;;;15.50;3.60;;;;;;;;;;4927344;29;20035;-56
2022/04/04 06:55:05;;;;;;;12.10;3.28;;;;;;;;;;4927229;29;20050;-57
2022/04/04 06:57:30;;;;;;;16.85;3.65;;;;;;;;;;4927217;29;20475;-58
2022/04/04 06:59:55;;;;;;;9.77;3.83;;;;;;;;;;4925899;29;20047;-58
2022/04/04 07:02:21;;;;;;;17.17;3.70;;;;;;;;;;4925366;29;20271;-57
2022/04/04 07:04:47;;;;;;;12.10;3.05;;;;;;;;;;4925849;29;20759;-57
2022/04/04 07:07:12;;;;;;;9.20;3.80;;;;;;;;;;4926472;29;20027;-57
2022/04/04 07:09:37;;;;;;;15.70;4.43;;;;;;;;;;4926028;29;20027;-57
2022/04/04 07:12:03;;;;;;;15.90;3.93;;;;;;;;;;4926424;29;20281;-55
2022/04/04 07:14:29;;;;;;;13.02;3.63;;;;;;;;;;4925004;29;20042;-54
2022/04/04 07:16:54;;;;;;;11.50;3.80;;;;;;;;;;4923471;29;20032;-59
2022/04/04 07:19:22;;;;;;;11.10;3.47;;;;;;;;;;4926365;29;20495;-58
2022/04/04 07:21:47;;;;;;;11.55;3.25;;;;;;;;;;4926248;29;20091;-57
2022/04/04 07:24:12;;;;;;;13.52;3.28;;;;;;;;;;4925877;29;20063;-58
2022/04/04 07:26:38;;;;;;;12.87;3.37;;;;;;;;;;4926398;29;20027;-57
2022/04/04 07:29:03;;;;;;;10.07;3.03;;;;;;;;;;4926581;29;20775;-57
2022/04/04 07:31:29;;;;;;;10.18;4.22;;;;;;;;;;4927074;29;20275;-58
2022/04/04 07:33:55;;;;;;;13.43;4.07;;;;;;;;;;4914280;29;20539;-55
2022/04/04 07:36:20;;;;;;;14.07;3.90;;;;;;;;;;4923990;29;20094;-58
2022/04/04 07:38:45;;;;;;;14.57;5.07;;;;;;;;;;4927482;29;20826;-54
2022/04/04 07:41:10;;;;;;;16.03;4.00;;;;;;;;;;4927205;29;20578;-58
2022/04/04 07:43:35;;;;;;;11.30;3.53;;;;;;;;;;4926952;29;20267;-57
2022/04/04 07:46:01;;;;;;;12.77;3.60;;;;;;;;;;4927344;29;20355;-57
2022/04/04 07:48:26;;;;;;;15.48;3.78;;;;;;;;;;4926707;29;20279;-55
2022/04/04 07:50:52;;;;;;;11.77;3.35;;;;;;;;;;4927255;29;20075;-54
2022/04/04 07:53:17;;;;;;;10.20;4.03;;;;;;;;;;4926994;29;20031;-55
2022/04/04 07:55:42;;;;;;;10.68;3.17;;;;;;;;;;4925678;29;20802;-57
2022/04/04 07:58:08;;;;;;;10.90;3.45;;;;;;;;;;4912660;29;20064;-56
2022/04/04 08:00:33;;;;;;;10.93;3.45;;;;;;;;;;4924456;29;20775;-57
2022/04/04 08:02:58;;;;;;;9.38;3.22;;;;;;;;;;4926078;29;20909;-52
2022/04/04 08:05:24;;;;;;;7.70;3.90;;;;;;;;;;4924481;29;21796;-57
2022/04/04 08:07:51;;;;;;;8.82;3.28;;;;;;;;;;4925319;29;20283;-56
2022/04/04 08:10:17;;;;;;;9.73;2.97;;;;;;;;;;4926489;29;20039;-52
2022/04/04 08:12:42;;;;;;;10.95;3.35;;;;;;;;;;4924130;29;20040;-57
2022/04/04 08:15:08;;;;;;;6.82;2.97;;;;;;;;;;4925895;29;20501;-56
2022/04/04 08:17:34;;;;;;;9.73;3.30;;;;;;;;;;4927087;29;20459;-54
2022/04/04 08:19:59;;;;;;;9.05;3.20;;;;;;;;;;4929410;29;20039;-53
2022/04/04 08:22:24;;;;;;;9.00;3.53;;;;;;;;;;4928790;29;20419;-57
2022/04/04 08:24:50;;;;;;;8.93;3.08;;;;;;;;;;4929988;29;20027;-53
2022/04/04 08:27:15;;;;;;;8.55;2.85;;;;;;;;;;4930686;29;20024;-56
2022/04/04 08:29:41;;;;;;;8.05;3.30;;;;;;;;;;4913440;29;20063;-54
2022/04/04 08:32:06;;;;;;;7.73;3.00;;;;;;;;;;4929522;29;20734;-55
2022/04/04 08:34:31;;;;;;;8.65;2.90;;;;;;;;;;4929853;29;20370;-56
2022/04/04 08:36:57;;;;;;;8.98;3.30;;;;;;;;;;4926850;29;20024;-54
2022/04/04 08:39:23;;;;;;;7.95;2.83;;;;;;;;;;4929084;29;20035;-54
2022/04/04 08:41:48;;;;;;;6.45;3.10;;;;;;;;;;4929901;29;20019;-55
2022/04/04 08:44:16;;;;;;;8.23;2.97;;;;;;;;;;4930065;29;20094;-54
2022/04/04 08:46:41;;;;;;;7.70;3.28;;;;;;;;;;4928947;29;20661;-53
2022/04/04 08:49:07;;;;;;;10.23;3.38;;;;;;;;;;4929840;29;20063;-56
2022/04/04 08:51:32;;;;;;;8.68;3.60;;;;;;;;;;4930280;29;20035;-58
2022/04/04 08:53:57;;;;;;;7.10;3.20;;;;;;;;;;4929607;29;20385;-52
2022/04/04 08:56:25;;;;;;;8.63;3.13;;;;;;;;;;4928044;29;20518;-56
2022/04/04 08:58:51;;;;;;;5.90;2.95;;;;;;;;;;4927385;29;20032;-58
2022/04/04 09:01:18;;;;;;;6.43;3.70;;;;;;;;;;4929150;29;20038;-56
2022/04/04 09:03:43;;;;;;;7.18;2.70;;;;;;;;;;4911934;29;20095;-58
2022/04/04 09:06:08;;;;;;;5.05;2.85;;;;;;;;;;4929990;29;20036;-56
2022/04/04 09:08:48;;;;;;;7.00;3.37;;;;;;;;;;4929541;29;20042;-56
2022/04/04 09:11:14;;;;;;;5.30;2.70;;;;;;;;;;4929474;29;20058;-55
2022/04/04 09:13:39;;;;;;;8.13;3.00;;;;;;;;;;4929875;29;20036;-58
2022/04/04 09:16:07;;;;;;;7.60;2.83;;;;;;;;;;4928494;29;20701;-57
2022/04/04 09:18:40;;;;;;;6.35;3.45;;;;;;;;;;4929185;29;20341;-57
2022/04/04 09:21:18;;;;;;;6.90;2.90;;;;;;;;;;4930314;29;20500;-56
2022/04/04 09:23:46;;;;;;;8.63;3.00;;;;;;;;;;4929677;29;20059;-56
2022/04/04 09:26:30;;;;;;;6.07;2.75;;;;;;;;;;4929791;29;20027;-55
2022/04/04 09:28:55;;;;;;;5.97;2.75;;;;;;;;;;4929533;29;20027;-54
2022/04/04 09:31:20;;;;;;;8.85;3.03;;;;;;;;;;4929274;29;20035;-53
2022/04/04 09:33:46;;;;;;;8.43;3.17;;;;;;;;;;4917978;29;20546;-54
2022/04/04 09:36:11;;;;;;;6.93;2.93;;;;;;;;;;4924586;29;20784;-56
2022/04/04 09:38:36;;;;;;;7.72;3.05;;;;;;;;;;4918904;29;20338;-55
2022/04/04 09:41:20;;;;;;;8.73;2.97;;;;;;;;;;4911995;29;20042;-56
2022/04/04 09:43:51;;;;;;;6.47;3.38;;;;;;;;;;4929113;29;20055;-55
2022/04/04 09:46:16;;;;;;;5.40;3.13;;;;;;;;;;4912185;29;20032;-58
2022/04/04 09:49:00;;;;;;;7.27;3.00;;;;;;;;;;4928576;29;20038;-58
2022/04/04 09:51:38;;;;;;;4.93;2.80;;;;;;;;;;4929068;29;20766;-59
2022/04/04 09:54:03;;;;;;;6.50;2.95;;;;;;;;;;4928160;29;20139;-58
2022/04/04 09:56:29;;;;;;;5.10;3.00;;;;;;;;;;4927192;29;20490;-58
2022/04/04 09:58:54;;;;;;;7.13;3.10;;;;;;;;;;4913831;29;20534;-60
2022/04/04 10:01:19;;;;;;;8.17;3.63;;;;;;;;;;4911598;29;20032;-54
2022/04/04 10:03:45;;;;;;;7.97;3.43;;;;;;;;;;4928599;29;20782;-63
2022/04/04 10:06:12;;;;;;;7.70;3.50;;;;;;;;;;4928582;29;20279;-59
2022/04/04 10:08:37;;;;;;;7.45;3.85;;;;;;;;;;4927198;29;20119;-56
2022/04/04 10:11:03;;;;;;;5.93;3.00;;;;;;;;;;4926965;29;20456;-56
2022/04/04 10:13:29;;;;;;;7.13;3.78;;;;;;;;;;4928356;29;20046;-57
2022/04/04 10:15:54;;;;;;;6.33;2.70;;;;;;;;;;4927366;29;20028;-57
2022/04/04 10:18:19;;;;;;;7.10;3.65;;;;;;;;;;4909314;29;20318;-56
2022/04/04 10:20:47;;;;;;;7.47;3.50;;;;;;;;;;4909138;29;20028;-63
2022/04/04 10:23:12;;;;;;;7.10;3.65;;;;;;;;;;4926464;29;20118;-62
2022/04/04 10:25:38;;;;;;;7.88;3.70;;;;;;;;;;4925965;29;20027;-57
2022/04/04 10:28:03;;;;;;;7.00;3.20;;;;;;;;;;4926860;29;20015;-58
2022/04/04 10:30:32;;;;;;;7.18;4.05;;;;;;;;;;4926297;29;20963;-57
2022/04/04 10:32:57;;;;;;;6.82;3.70;;;;;;;;;;4926140;29;20048;-58
2022/04/04 10:35:24;;;;;;;8.80;4.10;;;;;;;;;;4926015;29;20033;-63
2022/04/04 10:37:50;;;;;;;7.07;3.85;;;;;;;;;;4925043;29;20295;-62
2022/04/04 10:40:28;;;;;;;8.45;4.40;;;;;;;;;;4926733;29;20043;-62
2022/04/04 10:43:02;;;;;;;8.15;4.03;;;;;;;;;;4926221;29;20020;-58
2022/04/04 10:45:28;;;;;;;7.18;3.55;;;;;;;;;;4925205;29;20028;-59
2022/04/04 10:48:01;;;;;;;7.65;4.13;;;;;;;;;;4926405;29;20020;-59
2022/04/04 10:50:32;;;;;;;7.55;3.95;;;;;;;;;;4926472;29;20075;-59
2022/04/04 10:52:58;;;;;;;7.50;4.03;;;;;;;;;;4926858;29;20055;-53
2022/04/04 10:55:44;;;;;;;7.40;4.07;;;;;;;;;;4925711;29;20058;-59
2022/04/04 10:58:11;;;;;;;8.57;3.70;;;;;;;;;;4924711;29;20062;-58
2022/04/04 11:00:55;;;;;;;6.85;4.30;;;;;;;;;;4925915;29;20144;-56
2022/04/04 11:03:39;;;;;;;7.57;3.85;;;;;;;;;;4922949;29;20038;-57
2022/04/04 11:09:12;;;;;;;9.48;3.97;;;;;;;;;;4926300;29;20031;-55
2022/04/04 11:11:47;;;;;;;7.95;3.92;;;;;;;;;;4927518;29;20087;-57
2022/04/04 11:14:13;;;;;;;6.25;3.83;;;;;;;;;;4925019;29;20083;-52
2022/04/04 11:16:57;;;;;;;8.15;4.03;;;;;;;;;;4923664;29;20456;-55
2022/04/04 11:19:22;;;;;;;7.38;4.00;;;;;;;;;;4926175;29;20039;-53
2022/04/04 11:21:48;;;;;;;7.72;4.05;;;;;;;;;;4908428;29;20625;-57
2022/04/04 11:24:15;;;;;;;7.65;4.35;;;;;;;;;;4911353;29;20090;-58
2022/04/04 11:26:41;;;;;;;7.05;4.07;;;;;;;;;;4926291;29;20023;-57
2022/04/04 11:29:09;;;;;;;8.32;4.63;;;;;;;;;;4909491;29;20026;-58
2022/04/04 11:31:45;;;;;;;7.93;4.15;;;;;;;;;;4923176;29;20024;-58
2022/04/04 11:34:12;;;;;;;9.45;4.72;;;;;;;;;;4925844;29;20126;-54
2022/04/04 11:36:39;;;;;;;6.93;4.10;;;;;;;;;;4925653;29;20831;-53
2022/04/04 11:39:07;;;;;;;7.95;4.28;;;;;;;;;;4925986;29;20031;-57
2022/04/04 11:41:36;;;;;;;7.13;4.38;;;;;;;;;;4925753;29;20027;-55
2022/04/04 11:44:02;;;;;;;9.30;4.32;;;;;;;;;;4926112;29;20023;-55
2022/04/04 11:46:27;;;;;;;6.40;3.90;;;;;;;;;;4926793;29;20050;-58
2022/04/04 11:48:54;;;;;;;7.87;4.20;;;;;;;;;;4926783;29;20055;-56
2022/04/04 11:51:22;;;;;;;6.97;4.18;;;;;;;;;;4926600;29;20035;-56
2022/04/04 11:53:47;;;;;;;7.35;4.10;;;;;;;;;;4916045;29;20632;-57
2022/04/04 11:56:20;;;;;;;8.10;4.45;;;;;;;;;;4921545;29;20031;-57
2022/04/04 11:58:51;;;;;;;7.45;4.65;;;;;;;;;;4919796;29;20154;-56
2022/04/04 12:01:16;;;;;;;5.75;3.53;;;;;;;;;;4920129;29;20590;-54
2022/04/04 12:03:43;;;;;;;7.78;4.38;;;;;;;;;;4917659;29;20126;-53
2022/04/04 12:06:09;;;;;;;7.30;4.13;;;;;;;;;;4894412;29;20699;-58
2022/04/04 12:08:42;;;;;;;7.73;3.93;;;;;;;;;;4926798;29;20036;-58
2022/04/04 12:11:07;;;;;;;7.45;4.32;;;;;;;;;;4926143;29;20310;-53
2022/04/04 12:13:32;;;;;;;9.68;4.57;;;;;;;;;;4918047;29;20060;-59
2022/04/04 12:15:58;;;;;;;7.75;4.20;;;;;;;;;;4919205;29;20666;-56
2022/04/04 12:18:27;;;;;;;6.90;4.22;;;;;;;;;;4910991;29;20043;-56
2022/04/04 12:20:58;;;;;;;8.23;4.00;;;;;;;;;;4925139;29;20054;-59
2022/04/04 12:26:10;;;;;;;9.05;4.07;;;;;;;;;;4909816;29;20094;-56
2022/04/04 12:28:39;;;;;;;7.72;4.47;;;;;;;;;;4917238;29;20028;-54
2022/04/04 12:31:10;;;;;;;6.40;3.77;;;;;;;;;;4925342;29;20035;-56
2022/04/04 12:33:35;;;;;;;7.13;4.03;;;;;;;;;;4925644;29;20365;-56
2022/04/04 12:36:01;;;;;;;6.63;4.30;;;;;;;;;;4925649;29;20064;-58
2022/04/04 12:38:30;;;;;;;6.72;3.92;;;;;;;;;;4925088;29;20687;-58
2022/04/04 12:41:05;;;;;;;5.85;3.72;;;;;;;;;;4923029;29;20030;-55
2022/04/04 12:43:30;;;;;;;6.60;4.22;;;;;;;;;;4926587;29;20130;-59
2022/04/04 12:45:55;;;;;;;7.80;4.22;;;;;;;;;;4926426;29;20120;-56
2022/04/04 12:48:21;;;;;;;7.00;4.13;;;;;;;;;;4925753;29;20070;-56
2022/04/04 12:50:47;;;;;;;6.30;4.28;;;;;;;;;;4929220;28;20291;-57
2022/04/04 12:53:12;;;;;;;6.55;4.18;;;;;;;;;;4903602;29;20036;-59
2022/04/04 12:55:38;;;;;;;8.15;4.57;;;;;;;;;;4916612;29;20026;-59
2022/04/04 12:58:23;;;;;;;7.28;4.28;;;;;;;;;;4914110;29;20098;-54
2022/04/04 13:00:49;;;;;;;6.35;4.20;;;;;;;;;;4924937;29;20595;-57
2022/04/04 13:03:22;;;;;;;7.85;4.45;;;;;;;;;;4928659;29;20024;-59
2022/04/04 13:05:47;;;;;;;7.65;4.40;;;;;;;;;;4928865;29;20030;-57
2022/04/04 13:08:16;;;;;;;7.28;4.18;;;;;;;;;;4926961;29;20682;-54
2022/04/04 13:10:41;;;;;;;6.63;4.00;;;;;;;;;;4927851;29;20031;-55
2022/04/04 13:13:11;;;;;;;7.90;4.57;;;;;;;;;;4913577;29;20031;-54
2022/04/04 13:15:36;;;;;;;9.77;4.73;;;;;;;;;;4920634;29;20019;-53
2022/04/04 13:18:02;;;;;;;6.57;4.03;;;;;;;;;;4918569;29;20358;-54
2022/04/04 13:20:27;;;;;;;7.22;4.25;;;;;;;;;;4929435;29;20042;-58
2022/04/04 13:22:52;;;;;;;7.65;4.03;;;;;;;;;;4911555;29;20128;-54
2022/04/04 13:25:18;;;;;;;6.93;3.80;;;;;;;;;;4928611;29;20095;-59
2022/04/04 13:27:43;;;;;;;6.18;3.65;;;;;;;;;;4929004;29;20343;-56
2022/04/04 13:30:09;;;;;;;5.93;3.67;;;;;;;;;;4928859;29;20024;-56
2022/04/04 13:32:34;;;;;;;7.22;4.60;;;;;;;;;;4928639;29;20031;-59
2022/04/04 13:34:59;;;;;;;7.10;3.88;;;;;;;;;;4912099;29;20479;-57
2022/04/04 13:37:25;;;;;;;7.80;4.13;;;;;;;;;;4928393;29;20023;-52
2022/04/04 13:39:50;;;;;;;5.70;3.95;;;;;;;;;;4927860;29;20375;-53
2022/04/04 13:42:16;;;;;;;6.00;3.63;;;;;;;;;;4927026;29;20107;-55
2022/04/04 13:44:42;;;;;;;8.60;4.22;;;;;;;;;;4910937;29;20034;-53
2022/04/04 13:47:07;;;;;;;6.15;3.97;;;;;;;;;;4928698;29;20095;-57
2022/04/04 13:49:33;;;;;;;6.55;3.78;;;;;;;;;;4929295;29;20036;-58
2022/04/04 13:51:58;;;;;;;7.43;4.65;;;;;;;;;;4928804;29;20102;-55
2022/04/04 13:54:24;;;;;;;6.05;3.78;;;;;;;;;;4927388;29;20495;-57
2022/04/04 13:56:49;;;;;;;6.77;3.70;;;;;;;;;;4925026;29;20055;-56
2022/04/04 13:59:14;;;;;;;6.53;3.70;;;;;;;;;;4916692;29;20308;-58
2022/04/04 14:01:39;;;;;;;6.50;4.10;;;;;;;;;;4926883;29;20032;-54
2022/04/04 14:04:05;;;;;;;5.97;4.03;;;;;;;;;;4928050;29;20020;-59
2022/04/04 14:06:30;;;;;;;7.20;4.00;;;;;;;;;;4928281;29;20275;-55
2022/04/04 14:08:56;;;;;;;6.53;4.00;;;;;;;;;;4925723;29;20031;-58
2022/04/04 14:11:21;;;;;;;6.05;3.70;;;;;;;;;;4911919;29;20096;-53
2022/04/04 14:13:47;;;;;;;6.50;3.93;;;;;;;;;;4917663;29;20094;-54
2022/04/04 14:16:12;;;;;;;6.50;3.33;;;;;;;;;;4922643;29;20263;-53
2022/04/04 14:18:38;;;;;;;5.93;3.85;;;;;;;;;;4924890;29;20028;-56
2022/04/04 14:21:04;;;;;;;6.15;3.90;;;;;;;;;;4927543;29;20031;-57
2022/04/04 14:23:29;;;;;;;7.03;3.63;;;;;;;;;;4928080;29;20099;-57
2022/04/04 14:25:54;;;;;;;5.65;3.30;;;;;;;;;;4928479;29;20031;-55
2022/04/04 14:28:20;;;;;;;6.47;3.67;;;;;;;;;;4928833;29;20175;-57
2022/04/04 14:30:47;;;;;;;7.90;3.63;;;;;;;;;;4927305;29;20400;-53
2022/04/04 14:33:13;;;;;;;9.80;4.07;;;;;;;;;;4922504;29;20031;-58
2022/04/04 14:35:38;;;;;;;13.60;4.20;;;;;;;;;;4918055;29;20167;-53
2022/04/04 14:38:03;;;;;;;16.80;5.20;;;;;;;;;;4923969;29;20287;-57
2022/04/04 14:40:29;;;;;;;14.13;4.77;;;;;;;;;;4928027;29;20035;-54
2022/04/04 14:42:54;;;;;;;18.40;5.10;;;;;;;;;;4926773;29;20286;-58
2022/04/04 14:45:19;;;;;;;22.43;5.33;;;;;;;;;;4927751;29;20035;-52